Time;durP1;ratioP1;P1;durP2;ratioP2;P2;SDS_P1;SDS_P2;PMS_P1;PMS_P2;Temp;Humidity;BMP_temperature;BMP_pressure;BME280_temperature;BME280_humidity;BME280_pressure;Samples;Min_cycle;Max_cycle;Signal;HPM_P1;HPM_P2
2022/02/05 00:03:09;;;;;;;1.33;1.02;;;21.30;55.30;;;;;;5009026;28;20619;-54
2022/02/05 00:05:46;;;;;;;1.35;1.02;;;21.40;55.40;;;;;;5010321;28;20421;-43
2022/02/05 00:39:27;;;;;;;1.52;1.27;;;21.40;55.50;;;;;;5010325;28;20675;-52
2022/02/05 00:42:09;;;;;;;1.30;1.10;;;21.40;55.40;;;;;;5011373;28;20224;-43
2022/02/05 00:44:40;;;;;;;1.60;1.20;;;21.40;55.50;;;;;;5010567;28;20211;-43
2022/02/05 00:47:12;;;;;;;1.08;0.82;;;21.30;55.40;;;;;;5011150;28;20201;-42
2022/02/05 00:49:47;;;;;;;1.52;1.10;;;21.40;55.50;;;;;;5010011;28;20193;-51
2022/02/05 00:52:19;;;;;;;1.83;0.95;;;21.40;55.50;;;;;;5010008;28;20279;-55
2022/02/05 00:54:52;;;;;;;1.70;1.02;;;21.40;55.50;;;;;;5010259;28;20532;-49
2022/02/05 00:57:44;;;;;;;1.23;1.13;;;21.30;55.50;;;;;;5011258;28;20197;-47
2022/02/05 01:00:18;;;;;;;1.92;1.15;;;21.30;55.50;;;;;;5006525;28;20220;-40
2022/02/05 01:02:48;;;;;;;1.20;1.02;;;21.40;55.40;;;;;;5009489;28;20771;-52
2022/02/05 01:05:21;;;;;;;1.10;1.00;;;21.40;55.40;;;;;;5007192;28;20240;-39
2022/02/05 01:07:52;;;;;;;1.77;1.00;;;21.40;55.50;;;;;;5000663;28;20205;-40
2022/02/05 01:10:22;;;;;;;1.55;1.20;;;21.40;55.40;;;;;;5002559;28;20255;-40
2022/02/05 01:12:57;;;;;;;1.58;0.90;;;21.40;55.50;;;;;;5004645;28;20214;-39
2022/02/05 01:15:34;;;;;;;1.90;1.48;;;21.40;55.50;;;;;;5004993;28;20259;-40
2022/02/05 01:18:07;;;;;;;1.95;1.00;;;21.40;55.40;;;;;;5005380;28;20200;-41
2022/02/05 01:23:39;;;;;;;1.05;0.88;;;21.40;55.40;;;;;;4996690;28;20201;-47
2022/02/05 01:26:18;;;;;;;2.35;1.30;;;21.40;55.40;;;;;;5004865;28;20565;-39
2022/02/05 01:28:54;;;;;;;1.08;0.98;;;21.40;55.40;;;;;;5006103;28;20197;-42
2022/02/05 01:31:29;;;;;;;1.05;0.90;;;21.40;55.50;;;;;;5006300;28;20260;-47
2022/02/05 01:34:11;;;;;;;2.05;1.23;;;21.30;55.40;;;;;;5003801;28;21477;-41
2022/02/05 01:48:53;;;;;;;2.33;1.25;;;21.40;55.40;;;;;;4981284;28;20212;-53
2022/02/05 01:51:04;;;;;;;1.63;1.20;;;21.30;55.30;;;;;;5004871;28;20271;-44
2022/02/05 01:53:50;;;;;;;2.28;1.30;;;21.30;55.30;;;;;;5007207;28;20216;-39
2022/02/05 01:56:31;;;;;;;1.10;1.00;;;21.40;55.40;;;;;;5004919;28;20288;-39
2022/02/05 01:59:18;;;;;;;1.67;1.13;;;21.30;55.30;;;;;;5005902;28;20287;-55
2022/02/05 02:04:57;;;;;;;1.13;1.02;;;21.30;55.30;;;;;;5003542;28;20258;-40
2022/02/05 02:13:39;;;;;;;1.13;1.02;;;21.30;55.30;;;;;;4990485;28;20722;-40
2022/02/05 02:16:29;;;;;;;2.75;1.30;;;21.30;55.40;;;;;;4991609;28;20688;-40
2022/02/05 02:19:09;;;;;;;1.23;1.05;;;21.30;55.40;;;;;;4976955;28;20292;-39
2022/02/05 02:21:48;;;;;;;1.65;1.00;;;21.30;55.40;;;;;;5002832;28;20227;-49
2022/02/05 02:24:27;;;;;;;1.52;0.90;;;21.30;55.50;;;;;;4998176;28;20214;-40
2022/02/05 02:27:14;;;;;;;1.33;1.05;;;21.30;55.50;;;;;;4994184;28;20317;-39
2022/02/05 02:32:14;;;;;;;1.30;1.20;;;21.30;55.70;;;;;;4996332;28;20562;-42
2022/02/05 02:34:49;;;;;;;1.50;1.13;;;21.30;55.50;;;;;;4997300;28;20208;-40
2022/02/05 02:37:28;;;;;;;1.30;1.10;;;21.30;55.40;;;;;;4999240;28;20196;-44
2022/02/05 02:40:06;;;;;;;1.63;1.10;;;21.30;55.50;;;;;;5003859;28;20599;-52
2022/02/05 02:42:42;;;;;;;2.58;1.10;;;21.30;55.50;;;;;;5001632;28;20220;-49
2022/02/05 02:45:13;;;;;;;2.15;1.13;;;21.30;55.50;;;;;;5003343;28;20201;-40
2022/02/05 02:47:44;;;;;;;1.83;1.05;;;21.30;55.50;;;;;;5003203;28;20201;-40
2022/02/05 02:50:29;;;;;;;1.75;1.10;;;21.30;55.50;;;;;;5005265;28;20264;-47
2022/02/05 02:58:38;;;;;;;1.23;1.00;;;21.40;55.50;;;;;;5003969;28;20200;-55
2022/02/05 03:01:10;;;;;;;1.70;1.20;;;21.30;55.50;;;;;;5004571;28;20216;-43
2022/02/05 03:03:40;;;;;;;1.67;1.08;;;21.40;55.60;;;;;;5004640;28;20225;-45
2022/02/05 03:06:11;;;;;;;1.40;1.10;;;21.40;55.60;;;;;;5005956;28;20271;-40
2022/02/05 03:08:47;;;;;;;1.20;1.00;;;21.30;55.50;;;;;;5002786;28;20197;-41
2022/02/05 03:11:19;;;;;;;2.53;1.25;;;21.30;55.50;;;;;;5003292;28;20231;-39
2022/02/05 03:13:50;;;;;;;1.40;1.10;;;21.30;55.50;;;;;;5002497;28;20615;-39
2022/02/05 03:16:24;;;;;;;1.20;1.00;;;21.30;55.50;;;;;;5002901;28;20684;-39
2022/02/05 03:19:10;;;;;;;1.83;1.10;;;21.40;55.50;;;;;;5003119;28;20204;-56
2022/02/05 03:21:40;;;;;;;1.60;1.00;;;21.40;55.40;;;;;;5004430;28;20221;-53
2022/02/05 03:24:13;;;;;;;2.00;1.00;;;21.40;55.40;;;;;;5005027;28;20196;-52
2022/02/05 03:26:44;;;;;;;1.10;1.00;;;21.30;55.40;;;;;;5005626;28;20247;-55
2022/02/05 03:29:15;;;;;;;1.25;0.82;;;21.40;55.40;;;;;;5002209;28;20193;-55
2022/02/05 03:34:31;;;;;;;1.60;1.10;;;21.40;55.40;;;;;;4983976;28;20276;-59
2022/02/05 03:37:12;;;;;;;1.83;0.98;;;21.40;55.40;;;;;;4986717;28;20546;-56
2022/02/05 03:39:52;;;;;;;1.20;1.10;;;21.40;55.40;;;;;;4983994;28;20570;-50
2022/02/05 03:42:31;;;;;;;1.25;1.08;;;21.40;55.40;;;;;;4990486;28;20666;-52
2022/02/05 03:45:14;;;;;;;1.63;1.20;;;21.40;55.40;;;;;;4990868;28;20215;-60
2022/02/05 03:47:51;;;;;;;2.47;1.20;;;21.40;55.40;;;;;;4991681;28;20537;-54
2022/02/05 03:50:36;;;;;;;1.20;0.90;;;21.40;55.40;;;;;;4992623;28;20571;-58
2022/02/05 03:53:14;;;;;;;1.42;1.15;;;21.40;55.30;;;;;;4988024;28;20588;-59
2022/02/05 03:55:55;;;;;;;1.50;0.88;;;21.40;55.40;;;;;;4991138;28;20546;-56
2022/02/05 03:58:44;;;;;;;2.13;1.00;;;21.40;55.40;;;;;;4991884;28;20538;-59
2022/02/05 04:01:22;;;;;;;1.90;1.00;;;21.40;55.40;;;;;;4992863;28;20240;-56
2022/02/05 04:03:59;;;;;;;2.45;1.00;;;21.40;55.30;;;;;;4990776;28;20250;-53
2022/02/05 04:06:31;;;;;;;1.88;1.08;;;21.40;55.30;;;;;;5003436;23;20637;-55
2022/02/05 04:09:06;;;;;;;1.98;1.15;;;21.40;55.30;;;;;;5010119;28;20200;-55
2022/02/05 04:11:56;;;;;;;1.38;0.98;;;21.40;55.30;;;;;;5011790;28;20216;-49
2022/02/05 04:17:13;;;;;;;1.20;0.80;;;21.40;55.30;;;;;;5011835;28;20242;-48
2022/02/05 04:19:44;;;;;;;1.48;1.10;;;21.30;55.20;;;;;;5012023;28;20189;-51
2022/02/05 04:22:17;;;;;;;1.63;1.08;;;21.40;55.20;;;;;;5010027;28;20232;-50
2022/02/05 04:24:48;;;;;;;1.25;1.00;;;21.40;55.30;;;;;;5011137;28;20212;-54
2022/02/05 04:27:21;;;;;;;1.25;0.98;;;21.40;55.30;;;;;;5010932;28;20201;-50
2022/02/05 04:32:19;;;;;;;1.45;1.20;;;21.40;55.20;;;;;;5008834;28;20695;-50
2022/02/05 04:34:49;;;;;;;1.92;1.48;;;21.30;55.10;;;;;;5011308;28;20722;-40
2022/02/05 04:37:22;;;;;;;1.90;1.23;;;21.30;55.20;;;;;;5010299;28;20208;-39
2022/02/05 04:40:04;;;;;;;1.88;1.23;;;21.40;55.20;;;;;;5005032;28;20288;-49
2022/02/05 04:42:46;;;;;;;1.50;1.00;;;21.30;55.20;;;;;;5007712;28;20232;-47
2022/02/05 04:45:37;;;;;;;1.77;1.08;;;21.40;55.20;;;;;;5009348;28;20220;-48
2022/02/05 04:48:46;;;;;;;1.90;1.20;;;21.40;55.30;;;;;;5002044;28;20209;-50
2022/02/05 04:51:36;;;;;;;1.90;1.17;;;21.30;55.20;;;;;;5001093;28;20220;-51
2022/02/05 04:54:31;;;;;;;1.40;1.20;;;21.40;55.20;;;;;;5004360;28;20566;-47
2022/02/05 04:57:10;;;;;;;1.98;1.42;;;21.40;55.20;;;;;;5006528;28;20282;-45
2022/02/05 05:00:01;;;;;;;1.83;1.10;;;21.30;55.20;;;;;;5005300;28;20228;-50
2022/02/05 05:02:44;;;;;;;1.10;1.00;;;21.30;55.20;;;;;;5004347;28;20630;-42
2022/02/05 05:05:26;;;;;;;1.30;1.20;;;21.30;55.20;;;;;;5005928;28;20593;-43
2022/02/05 05:08:14;;;;;;;2.28;1.20;;;21.40;55.20;;;;;;5004490;28;20252;-46
2022/02/05 05:11:09;;;;;;;1.63;1.20;;;21.30;55.20;;;;;;5003090;28;20213;-40
2022/02/05 05:15:26;;;;;;;1.35;1.10;;;21.30;55.20;;;;;;5004845;28;20201;-42
2022/02/05 05:19:32;;;;;;;1.85;1.20;;;21.30;55.10;;;;;;5007028;28;20567;-47
2022/02/05 05:22:03;;;;;;;1.98;1.25;;;21.30;55.10;;;;;;5004098;28;20222;-50
2022/02/05 05:24:34;;;;;;;1.67;1.25;;;21.30;55.20;;;;;;5006668;28;20658;-43
2022/02/05 05:27:04;;;;;;;2.20;1.30;;;21.30;55.20;;;;;;5007027;28;20189;-52
2022/02/05 05:29:35;;;;;;;2.03;1.33;;;21.30;55.20;;;;;;5005567;28;20263;-42
2022/02/05 05:32:08;;;;;;;2.00;1.42;;;21.30;55.20;;;;;;5003563;28;20228;-47
2022/02/05 05:34:39;;;;;;;1.85;1.48;;;21.30;55.80;;;;;;5004316;28;20636;-42
2022/02/05 05:37:09;;;;;;;1.88;1.33;;;21.30;55.80;;;;;;5003337;28;20691;-49
2022/02/05 05:39:43;;;;;;;1.95;1.40;;;21.30;55.20;;;;;;5003463;28;20210;-47
2022/02/05 05:42:19;;;;;;;2.47;1.52;;;21.30;55.20;;;;;;5008663;28;20197;-50
2022/02/05 05:45:00;;;;;;;2.50;1.55;;;21.30;55.20;;;;;;5006325;28;20280;-48
2022/02/05 05:47:48;;;;;;;2.13;1.38;;;21.30;55.20;;;;;;5005909;28;20197;-52
2022/02/05 05:50:58;;;;;;;2.38;1.40;;;21.30;55.20;;;;;;5004668;28;20699;-50
2022/02/05 05:53:30;;;;;;;1.98;1.25;;;21.20;55.10;;;;;;5005357;28;20212;-44
2022/02/05 05:56:03;;;;;;;2.38;1.50;;;21.20;55.10;;;;;;5002881;28;20209;-40
2022/02/05 05:58:33;;;;;;;1.80;1.30;;;21.20;55.10;;;;;;5003239;28;20197;-39
2022/02/05 06:01:04;;;;;;;3.08;1.90;;;21.20;55.10;;;;;;5006314;28;20216;-43
2022/02/05 06:03:37;;;;;;;2.45;1.58;;;21.20;55.20;;;;;;5005256;28;20229;-40
2022/02/05 06:06:07;;;;;;;2.03;1.70;;;21.20;55.10;;;;;;5005947;28;20201;-48
2022/02/05 06:08:38;;;;;;;2.20;1.55;;;21.20;55.20;;;;;;5007171;28;20212;-40
2022/02/05 06:11:09;;;;;;;1.92;1.38;;;21.20;55.20;;;;;;5005730;28;20220;-45
2022/02/05 06:13:39;;;;;;;2.47;1.52;;;21.20;55.20;;;;;;4993691;28;20205;-49
2022/02/05 06:16:13;;;;;;;3.53;1.80;;;21.20;55.20;;;;;;4983383;28;20197;-45
2022/02/05 06:18:45;;;;;;;2.03;1.58;;;21.20;55.20;;;;;;4989063;28;20201;-55
2022/02/05 06:21:16;;;;;;;1.80;1.52;;;21.20;55.20;;;;;;4987825;28;20228;-56
2022/02/05 06:23:47;;;;;;;2.22;1.60;;;21.20;55.20;;;;;;4971351;28;20285;-58
2022/02/05 06:26:17;;;;;;;2.28;1.50;;;21.10;55.10;;;;;;4989851;28;20610;-58
2022/02/05 06:28:48;;;;;;;1.98;1.40;;;21.10;55.00;;;;;;4990109;28;20260;-58
2022/02/05 06:31:18;;;;;;;1.77;1.45;;;21.10;55.10;;;;;;4990155;28;20281;-58
2022/02/05 06:33:51;;;;;;;2.15;1.38;;;21.10;55.10;;;;;;4987625;28;20198;-58
2022/02/05 06:36:21;;;;;;;1.88;1.52;;;21.10;55.10;;;;;;4989632;28;20256;-58
2022/02/05 06:38:52;;;;;;;2.72;1.50;;;21.10;55.10;;;;;;4974902;28;20288;-57
2022/02/05 06:41:22;;;;;;;2.03;1.38;;;21.10;55.00;;;;;;4972988;28;20786;-51
2022/02/05 06:43:53;;;;;;;2.22;1.45;;;21.10;55.10;;;;;;4989291;28;20284;-56
2022/02/05 06:46:24;;;;;;;2.55;1.48;;;21.10;55.10;;;;;;4996618;28;20205;-58
2022/02/05 06:48:56;;;;;;;2.45;1.70;;;21.10;55.10;;;;;;4996014;28;20727;-57
2022/02/05 06:51:27;;;;;;;1.88;1.45;;;21.10;55.00;;;;;;4987902;28;20217;-58
2022/02/05 06:53:57;;;;;;;2.03;1.40;;;21.10;55.10;;;;;;4988355;28;20260;-58
2022/02/05 06:56:28;;;;;;;2.17;1.60;;;21.10;55.10;;;;;;4990691;28;20233;-52
2022/02/05 06:58:59;;;;;;;2.05;1.73;;;21.10;55.10;;;;;;4990190;28;20209;-55
2022/02/05 07:01:29;;;;;;;1.80;1.50;;;21.00;55.10;;;;;;4988715;28;20743;-58
2022/02/05 07:04:02;;;;;;;1.73;1.40;;;21.00;55.00;;;;;;4996579;28;20220;-55
2022/02/05 07:06:32;;;;;;;2.05;1.45;;;21.00;55.10;;;;;;4996722;28;20272;-58
2022/02/05 07:09:05;;;;;;;2.20;1.50;;;21.00;55.00;;;;;;4991588;28;20908;-51
2022/02/05 07:11:35;;;;;;;2.03;1.60;;;21.00;55.10;;;;;;4975062;28;20240;-52
2022/02/05 07:14:07;;;;;;;2.08;1.50;;;21.00;55.10;;;;;;4988404;28;20275;-50
2022/02/05 07:16:41;;;;;;;4.15;1.67;;;21.00;55.10;;;;;;4996393;28;20224;-57
2022/02/05 07:19:22;;;;;;;1.77;1.27;;;21.00;55.10;;;;;;4991836;28;20243;-56
2022/02/05 07:21:54;;;;;;;2.47;1.50;;;21.00;55.10;;;;;;4991584;28;20241;-58
2022/02/05 07:24:53;;;;;;;1.88;1.48;;;21.00;55.10;;;;;;4987005;28;20784;-52
2022/02/05 07:30:11;;;;;;;2.80;1.45;;;21.00;55.00;;;;;;4981329;28;20329;-53
2022/02/05 07:32:41;;;;;;;1.55;1.30;;;21.00;55.10;;;;;;5002003;28;20201;-58
2022/02/05 07:35:14;;;;;;;2.83;1.65;;;20.90;55.00;;;;;;4976027;28;20198;-55
2022/02/05 07:37:44;;;;;;;2.45;1.52;;;20.90;55.00;;;;;;5009304;28;20219;-56
2022/02/05 07:40:16;;;;;;;2.50;1.73;;;20.90;55.10;;;;;;4992545;28;20276;-57
2022/02/05 07:42:47;;;;;;;2.20;1.60;;;20.90;55.10;;;;;;5001125;28;20207;-50
2022/02/05 07:45:18;;;;;;;3.42;1.63;;;20.90;55.10;;;;;;4992012;28;20248;-50
2022/02/05 07:47:49;;;;;;;2.70;1.55;;;20.90;55.10;;;;;;4989632;28;20205;-58
2022/02/05 07:50:22;;;;;;;2.33;1.60;;;20.90;55.10;;;;;;4991002;28;20228;-57
2022/02/05 07:52:53;;;;;;;2.63;1.60;;;20.90;55.10;;;;;;5001725;28;20680;-53
2022/02/05 07:55:23;;;;;;;1.85;1.40;;;20.90;55.10;;;;;;4992238;28;20995;-56
2022/02/05 07:57:54;;;;;;;2.47;1.50;;;20.90;55.10;;;;;;4990982;28;20198;-52
2022/02/05 08:00:24;;;;;;;1.90;1.35;;;20.90;55.10;;;;;;4991502;28;20221;-58
2022/02/05 08:02:57;;;;;;;2.00;1.35;;;20.80;55.10;;;;;;4991870;28;20197;-57
2022/02/05 08:05:29;;;;;;;1.90;1.50;;;20.80;55.10;;;;;;4992823;28;20301;-53
2022/02/05 08:08:00;;;;;;;2.03;1.45;;;20.80;55.00;;;;;;5007259;28;20197;-55
2022/02/05 08:10:36;;;;;;;2.47;1.77;;;20.80;55.10;;;;;;4992534;28;20286;-54
2022/02/05 08:13:08;;;;;;;2.10;1.30;;;20.80;55.00;;;;;;4991796;28;20205;-58
2022/02/05 08:15:38;;;;;;;1.50;1.30;;;20.80;55.00;;;;;;4991796;28;20197;-54
2022/02/05 08:18:09;;;;;;;1.77;1.30;;;20.80;55.00;;;;;;4997421;28;20204;-47
2022/02/05 08:20:42;;;;;;;2.85;1.65;;;20.80;55.10;;;;;;4999786;28;20222;-49
2022/02/05 08:23:15;;;;;;;1.98;1.63;;;20.80;55.10;;;;;;4990366;28;20607;-55
2022/02/05 08:25:45;;;;;;;1.70;1.30;;;20.80;55.10;;;;;;4975948;28;20200;-55
2022/02/05 08:28:16;;;;;;;2.13;1.50;;;20.80;55.10;;;;;;5008716;28;20201;-55
2022/02/05 08:30:47;;;;;;;1.90;1.20;;;20.80;55.10;;;;;;5017261;22;20228;-59
2022/02/05 08:33:18;;;;;;;2.53;1.40;;;20.80;55.10;;;;;;5041071;28;20628;-57
2022/02/05 08:35:51;;;;;;;2.30;1.60;;;20.80;55.10;;;;;;5036688;28;20204;-51
2022/02/05 08:38:22;;;;;;;1.80;1.20;;;20.70;55.00;;;;;;5030540;28;20196;-57
2022/02/05 08:40:54;;;;;;;1.88;1.27;;;20.80;55.10;;;;;;5022568;28;20640;-40
2022/02/05 08:43:24;;;;;;;1.83;1.48;;;20.70;55.10;;;;;;5012101;28;20225;-56
2022/02/05 08:45:55;;;;;;;2.47;1.40;;;20.70;55.00;;;;;;5012010;28;20710;-47
2022/02/05 08:48:26;;;;;;;1.85;1.38;;;20.70;55.00;;;;;;5010933;28;20201;-48
2022/02/05 08:50:58;;;;;;;2.40;1.65;;;20.80;55.00;;;;;;5019605;28;20293;-52
2022/02/05 08:53:29;;;;;;;2.10;1.20;;;20.70;55.00;;;;;;5014630;28;20267;-53
2022/02/05 08:56:00;;;;;;;1.23;1.00;;;20.70;55.00;;;;;;5010335;28;20766;-54
2022/02/05 08:58:30;;;;;;;1.50;1.30;;;20.70;55.00;;;;;;5009869;28;20197;-48
2022/02/05 09:01:12;;;;;;;2.53;1.17;;;20.70;55.00;;;;;;5010902;28;20213;-48
2022/02/05 09:03:49;;;;;;;1.88;1.50;;;20.70;55.00;;;;;;5011399;28;20696;-47
2022/02/05 09:06:26;;;;;;;2.38;1.67;;;20.70;55.00;;;;;;5011070;28;20254;-43
2022/02/05 09:09:07;;;;;;;1.38;1.27;;;20.70;55.00;;;;;;5013374;28;20288;-55
2022/02/05 09:11:44;;;;;;;1.67;1.13;;;20.70;55.00;;;;;;5001467;28;20594;-57
2022/02/05 09:14:28;;;;;;;2.05;1.35;;;20.70;55.00;;;;;;4998715;28;20271;-57
2022/02/05 09:16:59;;;;;;;1.33;1.15;;;20.70;55.10;;;;;;5008088;28;20250;-52
2022/02/05 09:19:32;;;;;;;1.85;1.38;;;20.70;55.00;;;;;;5010242;28;20204;-56
2022/02/05 09:22:06;;;;;;;1.73;1.27;;;20.60;55.00;;;;;;5026350;28;20256;-54
2022/02/05 09:24:37;;;;;;;2.00;1.35;;;20.60;55.00;;;;;;5027344;28;20234;-56
2022/02/05 09:27:12;;;;;;;2.38;1.50;;;20.60;55.00;;;;;;5010510;28;20664;-50
2022/02/05 09:29:56;;;;;;;1.33;1.10;;;20.60;55.00;;;;;;5010157;28;20202;-49
2022/02/05 09:32:27;;;;;;;2.05;1.40;;;20.60;55.00;;;;;;5008341;28;20681;-49
2022/02/05 09:34:58;;;;;;;2.38;1.48;;;20.60;55.00;;;;;;5008880;28;20617;-42
2022/02/05 09:37:30;;;;;;;5.25;2.80;;;20.60;55.00;;;;;;5008767;28;20275;-51
2022/02/05 09:40:01;;;;;;;3.75;2.03;;;20.60;55.50;;;;;;5009899;28;20244;-54
2022/02/05 09:42:31;;;;;;;3.17;2.00;;;20.60;55.80;;;;;;5021237;28;20713;-52
2022/02/05 09:45:04;;;;;;;4.20;2.20;;;20.60;55.70;;;;;;5025254;28;20273;-54
2022/02/05 09:47:34;;;;;;;4.78;1.98;;;20.60;55.70;;;;;;5023248;28;20651;-49
2022/02/05 09:50:06;;;;;;;3.00;2.25;;;20.60;55.60;;;;;;5022499;28;20192;-46
2022/02/05 09:52:40;;;;;;;3.22;2.08;;;20.60;55.60;;;;;;5022428;28;20236;-58
2022/02/05 09:55:11;;;;;;;4.00;1.88;;;20.60;55.60;;;;;;5023372;28;20293;-57
2022/02/05 09:57:42;;;;;;;3.95;2.00;;;20.60;55.60;;;;;;5024767;28;20323;-57
2022/02/05 10:00:18;;;;;;;4.85;1.83;;;20.60;55.60;;;;;;5027739;28;20250;-58
2022/02/05 10:02:55;;;;;;;3.70;2.10;;;20.50;55.50;;;;;;5026250;28;20188;-53
2022/02/05 10:05:31;;;;;;;3.60;2.20;;;20.50;55.50;;;;;;5023907;28;20258;-56
2022/02/05 10:08:05;;;;;;;4.32;2.08;;;20.50;55.50;;;;;;5025760;28;20249;-58
2022/02/05 10:10:43;;;;;;;4.40;2.03;;;20.50;55.50;;;;;;5023455;28;20223;-44
2022/02/05 10:13:15;;;;;;;2.40;1.77;;;20.50;55.50;;;;;;5022729;28;20204;-48
2022/02/05 10:15:47;;;;;;;3.05;1.88;;;20.50;55.40;;;;;;5024630;28;20288;-56
2022/02/05 10:18:27;;;;;;;3.50;1.95;;;20.50;55.40;;;;;;5025774;28;20289;-51
2022/02/05 10:20:58;;;;;;;3.83;2.20;;;20.50;55.50;;;;;;5026593;28;20216;-47
2022/02/05 10:23:32;;;;;;;2.75;1.80;;;20.50;55.40;;;;;;5024919;28;20262;-48
2022/02/05 10:26:04;;;;;;;3.05;1.92;;;20.50;55.40;;;;;;5022964;28;20200;-49
2022/02/05 10:28:35;;;;;;;3.55;1.83;;;20.50;55.40;;;;;;5022547;28;20243;-39
2022/02/05 10:31:05;;;;;;;2.17;1.70;;;20.50;55.40;;;;;;5025114;28;20760;-53
2022/02/05 10:33:36;;;;;;;4.40;1.95;;;20.50;55.40;;;;;;5024460;28;20247;-45
2022/02/05 10:36:13;;;;;;;3.20;1.92;;;20.50;55.40;;;;;;5025092;28;20205;-41
2022/02/05 10:39:09;;;;;;;2.45;1.70;;;20.40;55.30;;;;;;5021679;28;20192;-57
2022/02/05 10:44:32;;;;;;;2.58;1.98;;;20.40;55.30;;;;;;5024296;28;20612;-58
2022/02/05 10:47:02;;;;;;;3.35;2.00;;;20.40;55.30;;;;;;5023602;28;20196;-57
2022/02/05 10:49:46;;;;;;;4.78;2.22;;;20.40;55.30;;;;;;5023022;28;20201;-55
2022/02/05 10:52:34;;;;;;;2.97;1.83;;;20.40;55.30;;;;;;5024150;28;20246;-57
2022/02/05 10:55:17;;;;;;;3.50;1.73;;;20.40;55.40;;;;;;5023716;28;20238;-50
2022/02/05 10:58:12;;;;;;;3.30;2.13;;;20.40;55.30;;;;;;5023141;28;20196;-51
2022/02/05 11:06:20;;;;;;;3.13;2.10;;;20.40;55.30;;;;;;5024534;28;20207;-47
2022/02/05 11:08:52;;;;;;;2.65;1.88;;;20.40;55.30;;;;;;5023868;28;20200;-53
2022/02/05 11:19:58;;;;;;;2.75;1.75;;;20.40;55.30;;;;;;5015294;28;20303;-57
2022/02/05 11:22:31;;;;;;;3.03;1.83;;;20.30;55.20;;;;;;5023526;28;20354;-52
2022/02/05 11:25:03;;;;;;;3.10;1.77;;;20.30;55.20;;;;;;5022084;28;20623;-49
2022/02/05 11:27:36;;;;;;;2.65;1.65;;;20.30;55.30;;;;;;5022596;28;20664;-48
2022/02/05 11:30:48;;;;;;;2.42;1.48;;;20.30;55.20;;;;;;5022265;28;20248;-65
2022/02/05 11:33:28;;;;;;;3.97;1.50;;;20.30;55.30;;;;;;5020078;28;20734;-57
2022/02/05 11:39:01;;;;;;;3.03;1.80;;;20.30;55.20;;;;;;5016589;28;20197;-54
2022/02/05 11:41:34;;;;;;;2.63;1.67;;;20.30;55.20;;;;;;5022920;28;20239;-51
2022/02/05 11:44:27;;;;;;;1.70;1.50;;;20.30;55.30;;;;;;5024409;28;20200;-52
2022/02/05 11:47:28;;;;;;;3.08;1.55;;;20.30;55.30;;;;;;5025090;28;20217;-43
2022/02/05 11:50:26;;;;;;;1.90;1.50;;;20.30;55.30;;;;;;5023348;28;20194;-48
2022/02/05 11:53:11;;;;;;;2.65;1.63;;;20.30;55.30;;;;;;5012525;28;20210;-47
2022/02/05 11:55:46;;;;;;;3.50;1.73;;;20.30;55.20;;;;;;4994387;28;20198;-57
2022/02/05 11:58:18;;;;;;;2.47;1.30;;;20.20;55.20;;;;;;5007660;28;20204;-43
2022/02/05 12:00:58;;;;;;;2.05;1.50;;;20.30;55.30;;;;;;5000703;28;20277;-48
2022/02/05 12:03:38;;;;;;;1.42;1.30;;;20.20;55.50;;;;;;5006480;28;20204;-41
2022/02/05 12:06:11;;;;;;;2.63;1.73;;;20.30;55.80;;;;;;5008164;28;20227;-57
2022/02/05 12:08:45;;;;;;;2.97;1.60;;;20.30;55.90;;;;;;5006275;28;20630;-58
2022/02/05 12:11:35;;;;;;;2.60;1.67;;;20.30;56.00;;;;;;5012427;28;20700;-58
2022/02/05 12:14:22;;;;;;;3.65;1.83;;;20.30;56.10;;;;;;4994865;28;20201;-59
2022/02/05 12:17:16;;;;;;;3.03;1.80;;;20.30;56.20;;;;;;5012484;28;20679;-59
2022/02/05 12:20:21;;;;;;;2.38;1.83;;;20.20;56.20;;;;;;4995480;28;20205;-58
2022/02/05 12:23:07;;;;;;;3.00;1.92;;;20.30;56.40;;;;;;5002826;28;20207;-58
2022/02/05 12:26:20;;;;;;;3.42;1.77;;;20.30;56.30;;;;;;4995262;28;20240;-58
2022/02/05 12:28:52;;;;;;;3.40;2.13;;;20.20;56.30;;;;;;4986042;28;20204;-54
2022/02/05 12:31:38;;;;;;;2.90;1.98;;;20.30;56.40;;;;;;5011304;28;20781;-59
2022/02/05 12:34:15;;;;;;;3.47;1.92;;;20.30;56.60;;;;;;5011916;28;20201;-59
2022/02/05 12:36:47;;;;;;;2.97;1.92;;;20.20;56.60;;;;;;5009847;28;20329;-58
2022/02/05 12:39:20;;;;;;;2.58;1.80;;;20.20;56.60;;;;;;5012067;28;20200;-59
2022/02/05 12:41:53;;;;;;;2.70;1.85;;;20.20;56.60;;;;;;5010583;28;20217;-56
2022/02/05 12:44:25;;;;;;;2.58;2.03;;;20.20;56.50;;;;;;5011774;28;20644;-59
2022/02/05 12:46:59;;;;;;;2.35;1.90;;;20.30;56.50;;;;;;5026341;28;20192;-59
2022/02/05 12:49:39;;;;;;;2.38;1.55;;;20.20;56.50;;;;;;4994180;28;20676;-58
2022/02/05 12:52:11;;;;;;;2.83;1.95;;;20.20;56.40;;;;;;4999552;28;20734;-59
2022/02/05 12:54:51;;;;;;;2.47;1.80;;;20.20;56.40;;;;;;4998504;28;20264;-59
2022/02/05 12:57:22;;;;;;;2.65;1.70;;;20.20;56.40;;;;;;5008983;28;20278;-49
2022/02/05 12:59:53;;;;;;;3.05;1.70;;;20.20;56.30;;;;;;5010831;28;20254;-60
2022/02/05 13:02:24;;;;;;;3.00;1.63;;;20.20;56.30;;;;;;4997525;28;20220;-60
2022/02/05 13:04:57;;;;;;;3.97;1.70;;;20.20;56.20;;;;;;5001054;28;20221;-59
2022/02/05 13:07:29;;;;;;;3.00;1.90;;;20.20;56.20;;;;;;5012321;28;20270;-54
2022/02/05 13:10:03;;;;;;;3.22;1.80;;;20.20;56.20;;;;;;5028380;28;20608;-58
2022/02/05 13:12:36;;;;;;;2.95;1.90;;;20.20;56.20;;;;;;5024232;28;20230;-57
2022/02/05 13:15:20;;;;;;;2.15;1.75;;;20.20;56.20;;;;;;5013268;28;20209;-48
2022/02/05 13:18:07;;;;;;;2.80;1.75;;;20.20;56.20;;;;;;5010491;28;20205;-55
2022/02/05 13:26:22;;;;;;;2.03;1.65;;;20.20;56.10;;;;;;5001836;28;20278;-58
2022/02/05 13:29:18;;;;;;;1.85;1.58;;;20.20;56.10;;;;;;5010376;28;20200;-51
2022/02/05 14:05:45;;;;;;;2.45;1.50;;;20.10;55.90;;;;;;5390352;22;20237;-58
2022/02/05 14:08:31;;;;;;;2.38;1.40;;;20.10;55.90;;;;;;4990929;28;20590;-52
2022/02/05 14:11:02;;;;;;;2.20;1.70;;;20.10;56.00;;;;;;4990871;28;20221;-53
2022/02/05 14:13:33;;;;;;;2.40;1.48;;;20.10;56.00;;;;;;4991216;28;20256;-53
2022/02/05 14:16:04;;;;;;;2.70;1.70;;;20.10;55.90;;;;;;4991570;28;20272;-51
2022/02/05 14:18:48;;;;;;;2.30;1.60;;;20.00;55.90;;;;;;4991663;28;20201;-51
2022/02/05 14:21:32;;;;;;;2.72;1.55;;;20.10;55.90;;;;;;4991272;28;20292;-51
2022/02/05 14:24:02;;;;;;;2.05;1.40;;;20.00;55.80;;;;;;4967931;28;20205;-51
2022/02/05 14:26:39;;;;;;;3.03;1.50;;;20.00;55.80;;;;;;4990970;28;20221;-52
2022/02/05 14:29:10;;;;;;;2.53;1.33;;;20.00;55.90;;;;;;4991064;28;20197;-50
2022/02/05 14:31:46;;;;;;;1.98;1.35;;;20.00;55.80;;;;;;5021791;22;20227;-63
2022/02/05 14:34:23;;;;;;;1.58;1.35;;;20.00;55.80;;;;;;5030362;28;20200;-62
2022/02/05 14:42:37;;;;;;;1.98;1.27;;;20.00;55.80;;;;;;5030498;28;20265;-60
2022/02/05 14:45:08;;;;;;;1.85;1.30;;;20.00;55.80;;;;;;5030232;28;20224;-53
2022/02/05 14:47:39;;;;;;;1.92;1.23;;;20.00;55.80;;;;;;5029882;28;20202;-62
2022/02/05 14:50:11;;;;;;;1.55;1.02;;;20.00;55.80;;;;;;5029626;28;20196;-60
2022/02/05 14:52:43;;;;;;;1.98;1.30;;;20.00;55.80;;;;;;5020316;28;20220;-62
2022/02/05 14:55:14;;;;;;;1.85;1.00;;;20.00;55.80;;;;;;5025760;28;20248;-59
2022/02/05 14:57:45;;;;;;;1.83;1.38;;;20.00;55.80;;;;;;5029619;28;20254;-62
2022/02/05 15:00:16;;;;;;;1.85;1.42;;;20.00;55.80;;;;;;5012203;28;20739;-61
2022/02/05 15:02:46;;;;;;;1.88;1.35;;;19.90;55.80;;;;;;5010150;28;20492;-54
2022/02/05 15:05:17;;;;;;;1.20;1.10;;;20.00;55.80;;;;;;5010143;28;20220;-63
2022/02/05 15:07:49;;;;;;;1.77;1.15;;;19.90;55.80;;;;;;5010017;28;20243;-58
2022/02/05 15:10:21;;;;;;;1.73;1.30;;;19.90;55.80;;;;;;5025858;28;20200;-62
2022/02/05 15:12:52;;;;;;;1.80;1.30;;;19.90;55.80;;;;;;5030063;28;20206;-62
2022/02/05 15:15:25;;;;;;;1.38;1.23;;;19.90;55.70;;;;;;5029814;28;20741;-59
2022/02/05 15:17:56;;;;;;;2.47;1.08;;;19.90;55.70;;;;;;5029844;28;20223;-63
2022/02/05 15:20:27;;;;;;;1.77;1.10;;;19.90;55.70;;;;;;5029725;28;20239;-63
2022/02/05 15:22:59;;;;;;;2.03;1.30;;;19.90;55.80;;;;;;5018089;28;20251;-63
2022/02/05 15:25:30;;;;;;;1.80;1.30;;;19.90;55.70;;;;;;5026558;28;20690;-63
2022/02/05 15:28:00;;;;;;;1.95;1.20;;;19.90;55.70;;;;;;5029845;28;20585;-63
2022/02/05 15:30:31;;;;;;;1.73;1.10;;;19.90;55.80;;;;;;5029940;28;20192;-57
2022/02/05 15:33:03;;;;;;;1.65;1.13;;;19.90;55.70;;;;;;5029494;28;20254;-62
2022/02/05 15:35:36;;;;;;;1.40;1.30;;;19.90;55.70;;;;;;5030416;28;20192;-61
2022/02/05 15:38:13;;;;;;;1.50;1.20;;;19.90;55.70;;;;;;5033248;28;20206;-62
2022/02/05 15:43:47;;;;;;;2.13;1.20;;;19.90;55.80;;;;;;5033704;28;20194;-63
2022/02/05 15:46:17;;;;;;;1.13;0.95;;;19.90;55.80;;;;;;5026196;28;20251;-61
2022/02/05 15:48:48;;;;;;;1.70;1.10;;;19.80;55.60;;;;;;5013732;28;20255;-54
2022/02/05 15:51:19;;;;;;;1.90;1.30;;;19.80;55.70;;;;;;5013637;28;20224;-57
2022/02/05 15:53:55;;;;;;;1.10;0.98;;;19.80;55.70;;;;;;5014904;28;20209;-61
2022/02/05 15:56:33;;;;;;;1.17;1.02;;;19.80;55.70;;;;;;5033112;28;20203;-53
2022/02/05 15:59:07;;;;;;;1.13;1.00;;;19.80;55.70;;;;;;5033114;28;20643;-56